Time;durP1;ratioP1;P1;durP2;ratioP2;P2;SDS_P1;SDS_P2;PMS_P1;PMS_P2;Temp;Humidity;BMP_temperature;BMP_pressure;BME280_temperature;BME280_humidity;BME280_pressure;Samples;Min_cycle;Max_cycle;Signal;HPM_P1;HPM_P2
2022/01/02 00:01:56;;;;;;;10.82;6.35;;;;;;;26.60;35.48;97217.69;4997093;28;20053;-61
2022/01/02 00:04:22;;;;;;;11.07;6.60;;;;;;;26.60;35.33;97223.81;4996556;28;20068;-61
2022/01/02 00:06:49;;;;;;;14.10;7.40;;;;;;;26.59;35.45;97216.81;5000794;28;20025;-62
2022/01/02 00:09:20;;;;;;;12.10;6.90;;;;;;;26.59;35.29;97216.00;5001363;28;20041;-61
2022/01/02 00:11:46;;;;;;;13.52;6.95;;;;;;;26.58;35.34;97219.56;4999692;28;20024;-60
2022/01/02 00:14:11;;;;;;;10.32;6.05;;;;;;;26.58;35.36;97220.38;4983718;28;20037;-61
2022/01/02 00:16:37;;;;;;;13.45;6.50;;;;;;;26.57;35.35;97213.44;5003531;28;20048;-62
2022/01/02 00:19:08;;;;;;;16.33;6.10;;;;;;;26.57;35.32;97200.28;5003797;28;20029;-62
2022/01/02 00:21:40;;;;;;;;;;;;;;;26.57;35.38;97192.41;5002040;28;20036;-61
2022/01/02 00:24:07;;;;;;;8.52;5.93;;;;;;;26.56;35.33;97189.84;5004238;28;19928;-61
2022/01/02 00:26:40;;;;;;;11.23;5.80;;;;;;;26.56;35.36;97192.47;5008291;28;20108;-62
2022/01/02 00:29:06;;;;;;;10.25;6.07;;;;;;;26.55;35.37;97201.31;5007222;28;20183;-61
2022/01/02 00:31:32;;;;;;;12.27;6.53;;;;;;;26.54;35.26;97207.50;5011016;28;20696;-61
2022/01/02 00:33:59;;;;;;;10.55;5.60;;;;;;;26.54;35.41;97210.13;5016161;28;20677;-60
2022/01/02 00:36:24;;;;;;;9.82;6.13;;;;;;;26.54;35.31;97212.75;5005772;28;20132;-61
2022/01/02 00:38:49;;;;;;;9.23;5.82;;;;;;;26.54;35.53;97212.75;5007477;28;20037;-62
2022/01/02 00:41:16;;;;;;;10.32;5.95;;;;;;;26.49;35.32;97199.81;5005038;28;20029;-61
2022/01/02 00:43:47;;;;;;;9.80;5.82;;;;;;;26.52;35.33;97191.78;4991911;28;20030;-61
2022/01/02 00:46:13;;;;;;;10.60;6.00;;;;;;;26.50;35.19;97185.75;5001942;28;20038;-61
2022/01/02 00:48:39;;;;;;;8.90;5.65;;;;;;;26.52;35.14;97178.66;5002911;28;20059;-60
2022/01/02 00:51:27;;;;;;;9.35;5.40;;;;;;;26.52;35.15;97189.16;4998170;28;20112;-64
2022/01/02 00:53:52;;;;;;;8.00;4.95;;;;;;;26.51;35.27;97187.47;5001397;28;20030;-61
2022/01/02 00:56:18;;;;;;;12.27;5.45;;;;;;;26.52;35.27;97183.91;4984837;28;20991;-61
2022/01/02 00:58:53;;;;;;;9.23;5.57;;;;;;;26.52;35.26;97175.16;4984982;28;20372;-62
2022/01/02 01:01:32;;;;;;;8.60;5.55;;;;;;;26.51;35.23;97170.84;4999697;28;20755;-62
2022/01/02 01:03:58;;;;;;;9.85;5.10;;;;;;;26.51;35.16;97174.34;5002981;28;20025;-62
2022/01/02 01:06:25;;;;;;;7.45;4.80;;;;;;;26.44;35.20;97175.56;4987387;28;20025;-62
2022/01/02 01:08:55;;;;;;;8.25;5.07;;;;;;;26.51;35.25;97176.09;5007641;28;20025;-63
2022/01/02 01:11:22;;;;;;;9.35;5.15;;;;;;;26.50;35.17;97172.59;4987715;28;20033;-61
2022/01/02 01:13:47;;;;;;;10.07;4.80;;;;;;;26.50;35.22;97161.25;5004198;28;20028;-60
2022/01/02 01:16:15;;;;;;;7.90;4.40;;;;;;;26.48;35.21;97161.34;5015885;28;20029;-62
2022/01/02 01:18:40;;;;;;;10.45;4.70;;;;;;;26.48;35.19;97159.53;5014706;28;20492;-62
2022/01/02 01:21:06;;;;;;;7.70;5.03;;;;;;;26.44;35.11;97149.28;5014726;28;20060;-61
2022/01/02 01:23:32;;;;;;;6.05;4.53;;;;;;;26.48;35.17;97150.81;5006087;28;20021;-61
2022/01/02 01:25:58;;;;;;;9.13;4.53;;;;;;;26.48;35.22;97153.44;4996658;28;20029;-60
2022/01/02 01:28:24;;;;;;;7.82;5.00;;;;;;;26.49;35.08;97152.53;5000160;28;20048;-62
2022/01/02 01:30:49;;;;;;;11.23;4.82;;;;;;;26.48;35.07;97150.81;4998052;28;20041;-61
2022/01/02 01:33:15;;;;;;;8.63;4.70;;;;;;;26.48;35.03;97153.44;5000159;28;20022;-61
2022/01/02 01:35:40;;;;;;;7.72;4.60;;;;;;;26.48;35.08;97156.06;4998975;28;20029;-64
2022/01/02 01:38:05;;;;;;;6.85;4.65;;;;;;;26.46;34.78;97155.28;4999565;28;20029;-61
2022/01/02 01:40:35;;;;;;;7.22;4.88;;;;;;;26.47;35.08;97157.84;5000490;28;20044;-61
2022/01/02 01:43:03;;;;;;;6.78;4.50;;;;;;;26.46;34.96;97144.78;5000756;28;20063;-61
2022/01/02 01:45:29;;;;;;;9.35;5.07;;;;;;;26.45;34.92;97140.47;4982999;28;21772;-61
2022/01/02 01:47:59;;;;;;;6.88;4.57;;;;;;;26.46;34.99;97143.00;4982058;28;20060;-61
2022/01/02 01:50:26;;;;;;;6.82;4.50;;;;;;;26.45;35.03;97140.47;4998264;28;20033;-61
2022/01/02 01:52:52;;;;;;;6.40;3.95;;;;;;;26.45;35.12;97148.34;4996375;28;20033;-62
2022/01/02 01:55:17;;;;;;;6.38;4.13;;;;;;;26.46;35.09;97144.78;4998718;28;20119;-61
2022/01/02 01:57:43;;;;;;;5.53;4.00;;;;;;;26.45;35.03;97145.72;4999429;28;20031;-62
2022/01/02 02:00:11;;;;;;;6.93;3.78;;;;;;;26.42;35.02;97143.22;4998139;28;20672;-61
2022/01/02 02:02:36;;;;;;;6.63;4.18;;;;;;;26.43;35.09;97148.41;4999601;28;20481;-62
2022/01/02 02:05:02;;;;;;;6.50;4.30;;;;;;;26.44;35.06;97138.75;4982381;28;20033;-60
2022/01/02 02:07:37;;;;;;;5.97;4.07;;;;;;;26.43;35.03;97143.16;5003346;28;20037;-62
2022/01/02 02:10:14;;;;;;;6.00;3.85;;;;;;;26.42;35.06;97135.34;5007670;28;20818;-61
2022/01/02 02:12:40;;;;;;;7.60;3.85;;;;;;;26.42;35.11;97144.09;4992200;28;20586;-61
2022/01/02 02:15:06;;;;;;;6.35;4.00;;;;;;;26.40;35.09;97131.97;5006631;28;20029;-62
2022/01/02 02:17:32;;;;;;;6.60;3.70;;;;;;;26.41;34.92;97125.78;5006464;28;20033;-61
2022/01/02 02:20:18;;;;;;;5.90;3.72;;;;;;;26.41;34.97;97123.16;4975662;28;20025;-61
2022/01/02 02:22:46;;;;;;;5.60;3.70;;;;;;;26.40;35.07;97116.19;5008043;28;20029;-61
2022/01/02 02:25:13;;;;;;;8.48;3.60;;;;;;;26.40;34.98;97116.19;5004075;28;20036;-61
2022/01/02 02:27:38;;;;;;;7.00;3.95;;;;;;;26.39;35.07;97119.75;4993466;28;20029;-61
2022/01/02 02:30:05;;;;;;;5.72;3.85;;;;;;;26.39;34.99;97111.88;5005257;28;20067;-61
2022/01/02 02:32:30;;;;;;;7.82;4.00;;;;;;;26.36;35.00;97094.50;5002135;28;20022;-61
2022/01/02 02:34:55;;;;;;;5.68;3.92;;;;;;;26.37;35.05;97098.81;5005520;28;20049;-61
2022/01/02 02:37:21;;;;;;;5.55;3.60;;;;;;;26.33;35.04;97097.25;5005919;28;20035;-60
2022/01/02 02:39:46;;;;;;;6.25;3.65;;;;;;;26.35;34.92;97096.25;5006737;28;20029;-61
2022/01/02 02:42:28;;;;;;;5.28;3.47;;;;;;;26.35;35.00;97087.50;4992473;28;20064;-62
2022/01/02 02:48:33;;;;;;;6.40;3.42;;;;;;;26.36;35.04;97078.72;5006889;28;20058;-62
2022/01/02 02:50:23;;;;;;;7.60;3.92;;;;;;;26.34;34.67;97068.28;5005689;28;20104;-61
2022/01/02 02:52:48;;;;;;;8.68;3.75;;;;;;;26.34;34.90;97070.06;5005407;28;20030;-61
2022/01/02 02:55:14;;;;;;;8.00;3.50;;;;;;;26.31;34.97;97065.81;5008549;28;20025;-60
2022/01/02 02:57:39;;;;;;;8.50;3.80;;;;;;;26.32;34.99;97070.13;4992979;28;20508;-60
2022/01/02 03:00:05;;;;;;;6.82;3.35;;;;;;;26.31;34.96;97060.56;5005113;28;20030;-60
2022/01/02 03:02:31;;;;;;;4.50;3.20;;;;;;;26.31;35.01;97057.09;5007956;28;20063;-60
2022/01/02 03:04:56;;;;;;;5.70;3.60;;;;;;;26.30;34.93;97056.22;5009424;28;20049;-61
2022/01/02 03:07:22;;;;;;;4.50;3.05;;;;;;;26.30;34.83;97048.34;5006951;28;20033;-61
2022/01/02 03:09:50;;;;;;;6.43;3.38;;;;;;;26.30;34.87;97050.97;4987246;28;20726;-61
2022/01/02 03:12:15;;;;;;;4.38;3.30;;;;;;;26.29;34.98;97051.91;5004400;28;20030;-61
2022/01/02 03:14:41;;;;;;;5.22;3.40;;;;;;;26.30;34.96;97052.75;5003308;28;20111;-61
2022/01/02 03:17:06;;;;;;;4.90;3.28;;;;;;;26.30;35.02;97042.22;5004351;28;20026;-61
2022/01/02 03:19:32;;;;;;;5.50;3.35;;;;;;;26.29;34.94;97044.03;5004545;28;20037;-62
2022/01/02 03:21:58;;;;;;;5.72;3.40;;;;;;;26.30;35.15;97042.22;5013992;28;20515;-61
2022/01/02 03:24:24;;;;;;;4.32;3.10;;;;;;;26.29;35.02;97035.28;5010755;28;20075;-60
2022/01/02 03:26:49;;;;;;;3.92;3.08;;;;;;;26.29;34.90;97040.53;5006826;28;20037;-61
2022/01/02 03:29:14;;;;;;;5.78;2.95;;;;;;;26.28;34.89;97042.31;5007307;28;20710;-61
2022/01/02 03:31:40;;;;;;;7.10;3.17;;;;;;;26.26;34.95;97036.31;5008558;28;20021;-60
2022/01/02 03:34:05;;;;;;;4.65;3.00;;;;;;;26.27;35.07;97040.63;5005153;28;20025;-59
2022/01/02 03:36:31;;;;;;;3.60;2.90;;;;;;;26.27;35.04;97037.16;5005540;28;20511;-60
2022/01/02 03:38:56;;;;;;;4.47;2.95;;;;;;;26.27;34.97;97032.75;5006245;28;20038;-60
2022/01/02 03:41:21;;;;;;;4.40;3.17;;;;;;;26.27;34.97;97029.28;5004408;28;20447;-60
2022/01/02 03:43:47;;;;;;;5.30;3.13;;;;;;;26.27;34.92;97027.47;4987518;28;20021;-60
2022/01/02 03:46:13;;;;;;;5.57;2.72;;;;;;;26.27;34.88;97027.47;5006419;28;20029;-60
2022/01/02 03:48:38;;;;;;;3.70;2.80;;;;;;;26.27;34.96;97024.03;5007238;28;20048;-60
2022/01/02 03:51:04;;;;;;;5.00;3.10;;;;;;;26.27;35.02;97018.78;5010343;28;20029;-61
2022/01/02 03:53:29;;;;;;;5.15;2.75;;;;;;;26.26;34.72;97015.28;5010877;28;20603;-61
2022/01/02 03:55:55;;;;;;;6.00;3.05;;;;;;;26.26;35.02;97015.28;4992166;28;20049;-61
2022/01/02 03:58:20;;;;;;;6.10;3.00;;;;;;;26.26;34.86;97009.16;5009134;28;20029;-61
2022/01/02 04:00:45;;;;;;;6.40;2.90;;;;;;;26.25;34.94;97007.44;5008789;28;20030;-60
2022/01/02 04:03:11;;;;;;;6.30;2.80;;;;;;;26.25;34.97;97013.56;5009489;28;20570;-60
2022/01/02 04:05:36;;;;;;;3.78;2.60;;;;;;;26.24;34.91;97001.38;5010422;28;20413;-60
2022/01/02 04:08:03;;;;;;;5.43;2.55;;;;;;;26.23;35.01;96994.38;5005099;28;20037;-61
2022/01/02 04:10:28;;;;;;;4.75;2.60;;;;;;;26.24;34.98;96993.47;5004595;28;20033;-60
2022/01/02 04:12:54;;;;;;;3.38;2.63;;;;;;;26.23;34.94;96989.13;5004462;28;20029;-61
2022/01/02 04:15:19;;;;;;;3.95;2.75;;;;;;;26.23;34.97;96989.13;5023067;28;20029;-61
2022/01/02 04:17:45;;;;;;;4.18;2.88;;;;;;;26.23;34.98;96991.75;5002496;28;20045;-61
2022/01/02 04:20:11;;;;;;;4.18;2.65;;;;;;;26.22;34.97;96987.44;5000882;28;20036;-60
2022/01/02 04:22:37;;;;;;;4.13;2.58;;;;;;;26.22;35.01;96996.19;5001173;28;20025;-61
2022/01/02 04:25:03;;;;;;;4.20;2.70;;;;;;;26.23;34.92;96989.13;5001065;28;20083;-61
2022/01/02 04:27:29;;;;;;;3.55;2.60;;;;;;;26.22;35.00;96979.56;5000464;28;20033;-61
2022/01/02 04:29:54;;;;;;;3.38;2.60;;;;;;;26.22;34.90;96982.19;4988392;28;20104;-61
2022/01/02 04:32:20;;;;;;;3.30;2.33;;;;;;;26.21;34.85;96967.38;4996736;28;20092;-60
2022/01/02 04:34:45;;;;;;;5.88;2.47;;;;;;;26.21;34.74;96970.00;4999241;28;20033;-62
2022/01/02 04:37:11;;;;;;;3.22;2.50;;;;;;;26.20;34.94;96973.56;5001099;28;20897;-60
2022/01/02 04:39:37;;;;;;;3.00;2.40;;;;;;;26.20;34.93;96966.50;4999312;28;20679;-61
2022/01/02 04:42:02;;;;;;;3.10;2.33;;;;;;;26.20;34.82;96965.66;4998423;28;20070;-60
2022/01/02 04:44:28;;;;;;;4.32;2.20;;;;;;;26.20;34.99;96965.66;4999197;28;20030;-60
2022/01/02 04:46:53;;;;;;;3.95;2.30;;;;;;;26.19;34.95;96964.81;5000852;28;20036;-60
2022/01/02 04:49:19;;;;;;;3.22;2.42;;;;;;;26.19;34.89;96953.44;5001300;28;20032;-60
2022/01/02 04:51:44;;;;;;;3.78;2.47;;;;;;;26.18;34.88;96949.13;5001940;28;20905;-60
2022/01/02 04:54:09;;;;;;;3.33;2.45;;;;;;;26.18;34.89;96950.00;4995399;28;20026;-61
2022/01/02 04:56:35;;;;;;;3.58;2.50;;;;;;;26.16;34.90;96951.84;5000801;28;20057;-60
2022/01/02 04:59:00;;;;;;;3.97;2.63;;;;;;;26.18;34.97;96949.13;4987161;28;20057;-61
2022/01/02 05:01:26;;;;;;;3.45;2.47;;;;;;;26.17;35.04;96952.69;4998266;28;20128;-61
2022/01/02 05:03:51;;;;;;;4.32;2.13;;;;;;;26.17;34.91;96947.44;5000636;28;20038;-60
2022/01/02 05:06:17;;;;;;;3.05;2.10;;;;;;;26.15;35.12;96944.03;4998719;28;20510;-60
2022/01/02 05:08:45;;;;;;;3.03;2.13;;;;;;;26.13;35.15;96932.75;5005379;28;20407;-61
2022/01/02 05:11:11;;;;;;;3.17;1.90;;;;;;;26.15;34.96;96938.78;5008840;28;20539;-61
2022/01/02 05:13:37;;;;;;;4.28;2.17;;;;;;;26.16;34.94;96937.88;5006623;28;20091;-60
2022/01/02 05:16:02;;;;;;;3.60;2.30;;;;;;;26.16;35.03;96940.50;5007002;28;20037;-60
2022/01/02 05:18:28;;;;;;;3.42;2.00;;;;;;;26.15;34.86;96944.88;5009606;28;20064;-60
2022/01/02 05:20:53;;;;;;;2.42;2.00;;;;;;;26.14;35.22;96937.09;5006901;28;20025;-61
2022/01/02 05:23:19;;;;;;;2.80;2.05;;;;;;;26.14;34.78;96926.56;5004962;28;20040;-61
2022/01/02 05:25:45;;;;;;;3.20;2.15;;;;;;;26.15;35.02;96930.91;5000361;28;20539;-60
2022/01/02 05:28:10;;;;;;;3.03;2.13;;;;;;;26.15;35.03;96928.25;5015359;28;20029;-61
2022/01/02 05:30:39;;;;;;;4.75;2.15;;;;;;;26.09;34.92;96919.78;4999512;28;20721;-61
2022/01/02 05:33:05;;;;;;;2.53;2.00;;;;;;;26.13;34.90;96925.75;4999848;28;20218;-61
2022/01/02 05:35:31;;;;;;;3.35;1.85;;;;;;;26.13;35.11;96919.63;5001414;28;20905;-61
2022/01/02 05:37:57;;;;;;;3.10;1.95;;;;;;;26.13;35.07;96920.50;4998704;28;20033;-61
2022/01/02 05:40:23;;;;;;;2.33;1.83;;;;;;;26.13;34.97;96904.75;5000736;28;20071;-60
2022/01/02 05:42:49;;;;;;;2.45;1.80;;;;;;;26.12;34.89;96902.19;4998501;28;20480;-60
2022/01/02 05:45:14;;;;;;;3.58;2.20;;;;;;;26.12;34.94;96903.00;5001121;28;20029;-61
2022/01/02 05:47:40;;;;;;;3.00;2.03;;;;;;;26.13;34.93;96903.88;4995996;28;20072;-61
2022/01/02 05:50:06;;;;;;;2.15;1.58;;;;;;;26.12;34.92;96899.56;4997702;28;20033;-60
2022/01/02 05:52:32;;;;;;;1.98;1.75;;;;;;;26.12;35.06;96908.28;4995982;28;20057;-61
2022/01/02 05:54:57;;;;;;;2.35;2.15;;;;;;;26.12;34.91;96904.81;5001700;28;20041;-59
2022/01/02 05:57:23;;;;;;;2.92;1.95;;;;;;;26.12;34.98;96907.44;4998524;28;20060;-62
2022/01/02 05:59:48;;;;;;;1.88;1.60;;;;;;;26.12;34.94;96902.19;4996389;28;20033;-60
2022/01/02 06:02:14;;;;;;;3.63;2.10;;;;;;;26.12;35.11;96902.19;4995995;28;20855;-61
2022/01/02 06:04:39;;;;;;;2.40;1.85;;;;;;;26.10;35.03;96903.09;4996221;28;20126;-60
2022/01/02 06:07:05;;;;;;;1.90;1.70;;;;;;;26.12;35.20;96902.19;4996021;28;20033;-59
2022/01/02 06:09:30;;;;;;;2.78;1.92;;;;;;;26.10;34.93;96897.84;4998509;28;20033;-61
2022/01/02 06:11:56;;;;;;;2.38;1.85;;;;;;;26.12;35.04;96904.81;4998265;28;20037;-61
2022/01/02 06:14:21;;;;;;;2.13;1.70;;;;;;;26.10;35.05;96900.47;4997746;28;20069;-61
2022/01/02 06:16:46;;;;;;;2.95;1.60;;;;;;;26.10;34.97;96900.47;4997485;28;20033;-61
2022/01/02 06:19:12;;;;;;;2.47;1.70;;;;;;;26.10;34.98;96897.00;4997726;28;20032;-62
2022/01/02 06:21:37;;;;;;;2.47;1.83;;;;;;;26.11;34.88;96898.69;4998714;28;20573;-62
2022/01/02 06:24:02;;;;;;;2.78;1.60;;;;;;;26.09;34.99;96892.69;4998205;28;20029;-61
2022/01/02 06:26:28;;;;;;;2.33;1.70;;;;;;;26.10;35.09;96892.59;5003132;28;20045;-60
2022/01/02 06:28:53;;;;;;;2.00;1.67;;;;;;;26.09;34.95;96882.19;4996665;28;20033;-61
2022/01/02 06:31:19;;;;;;;3.15;1.65;;;;;;;26.08;35.04;96876.06;4997147;28;20096;-60
2022/01/02 06:33:44;;;;;;;1.98;1.73;;;;;;;26.09;34.97;96887.44;4999242;28;21762;-59
2022/01/02 06:36:09;;;;;;;2.17;1.70;;;;;;;26.10;35.08;96889.13;4995951;28;20040;-62
2022/01/02 06:38:35;;;;;;;3.03;1.80;;;;;;;26.09;34.93;96893.53;4997706;28;20025;-61
2022/01/02 06:41:00;;;;;;;2.20;1.52;;;;;;;26.09;34.91;96890.06;5001939;28;20034;-60
2022/01/02 06:43:26;;;;;;;2.05;1.55;;;;;;;26.10;34.96;96897.00;4999321;28;20033;-61
2022/01/02 06:45:51;;;;;;;2.35;1.80;;;;;;;26.09;35.00;96898.78;4999862;28;20036;-63
2022/01/02 06:48:16;;;;;;;2.17;1.63;;;;;;;26.10;35.06;96904.88;4996667;28;20498;-60
2022/01/02 06:50:42;;;;;;;3.47;1.60;;;;;;;26.10;34.95;96897.84;4998899;28;20033;-63
2022/01/02 06:53:07;;;;;;;2.08;1.42;;;;;;;26.12;35.00;96886.44;4993398;28;20740;-62
2022/01/02 06:55:33;;;;;;;2.20;1.80;;;;;;;26.11;34.95;96869.81;4996132;28;20025;-62
2022/01/02 06:57:58;;;;;;;1.75;1.50;;;;;;;26.10;34.81;96863.69;4998052;28;20423;-61
2022/01/02 07:00:23;;;;;;;2.17;1.52;;;;;;;26.11;34.93;96875.06;4994377;28;20026;-61
2022/01/02 07:02:49;;;;;;;2.13;1.70;;;;;;;26.10;34.97;96874.19;4995089;28;20030;-60
2022/01/02 07:05:14;;;;;;;2.10;1.70;;;;;;;26.12;34.92;96875.91;4995666;28;20032;-63
2022/01/02 07:07:43;;;;;;;1.65;1.40;;;;;;;26.12;34.92;96875.91;5004759;28;20480;-60
2022/01/02 07:10:09;;;;;;;2.05;1.40;;;;;;;26.07;35.08;96869.13;4985214;28;20040;-60
2022/01/02 07:12:36;;;;;;;1.85;1.20;;;;;;;26.12;35.07;96875.91;4995179;28;20025;-60
2022/01/02 07:15:01;;;;;;;2.10;1.52;;;;;;;26.09;35.21;96871.69;4996115;28;20495;-62
2022/01/02 07:17:27;;;;;;;1.83;1.50;;;;;;;26.13;35.17;96872.34;4996054;28;20033;-60
2022/01/02 07:19:52;;;;;;;1.92;1.50;;;;;;;26.12;34.97;96860.16;4994979;28;20111;-60
2022/01/02 07:22:17;;;;;;;1.85;1.60;;;;;;;26.09;34.97;96856.75;4996065;28;21265;-62
2022/01/02 07:24:50;;;;;;;1.45;1.33;;;;;;;26.13;35.05;96851.34;4996231;28;20084;-62
2022/01/02 07:27:15;;;;;;;1.88;1.38;;;;;;;26.14;34.93;96855.66;4995768;28;20064;-61
2022/01/02 07:29:41;;;;;;;2.30;1.70;;;;;;;26.15;34.96;96857.34;4996407;28;20025;-63
2022/01/02 07:32:06;;;;;;;4.78;1.55;;;;;;;26.14;34.99;96847.78;4994780;28;20025;-61
2022/01/02 07:34:32;;;;;;;5.32;1.77;;;;;;;26.14;34.89;96853.91;4993588;28;20037;-62
2022/01/02 07:36:57;;;;;;;4.00;1.60;;;;;;;26.14;34.90;96855.66;5011306;28;20038;-63
2022/01/02 07:39:22;;;;;;;2.90;1.70;;;;;;;26.14;34.96;96853.03;4998739;28;20033;-63
2022/01/02 07:41:48;;;;;;;2.90;1.67;;;;;;;26.15;34.85;96857.34;4997111;28;20045;-59
2022/01/02 07:44:13;;;;;;;7.40;2.13;;;;;;;26.14;34.90;96853.03;4994097;28;20026;-59
2022/01/02 07:46:39;;;;;;;12.60;2.55;;;;;;;26.14;34.79;96860.91;4995687;28;20038;-59
2022/01/02 07:49:04;;;;;;;7.13;2.80;;;;;;;26.12;34.36;96857.53;4997345;28;20037;-60
2022/01/02 07:51:30;;;;;;;4.82;2.35;;;;;;;26.12;34.48;96858.38;4999197;28;20071;-60
2022/01/02 07:53:55;;;;;;;7.43;2.63;;;;;;;26.13;34.83;96856.59;4993058;28;20053;-62
2022/01/02 07:56:20;;;;;;;5.93;2.45;;;;;;;26.14;34.90;96858.28;4995090;28;20083;-61
2022/01/02 07:58:46;;;;;;;6.38;2.58;;;;;;;26.14;34.84;96847.78;4997685;28;20411;-62
2022/01/02 08:01:11;;;;;;;5.32;2.30;;;;;;;26.15;34.93;96859.97;4996315;28;20029;-61
2022/01/02 08:03:37;;;;;;;5.80;2.40;;;;;;;26.14;34.91;96863.53;4996252;28;20116;-63
2022/01/02 08:06:02;;;;;;;6.93;2.67;;;;;;;26.15;34.79;96859.97;4997308;28;20812;-61
2022/01/02 08:08:28;;;;;;;8.27;2.67;;;;;;;26.17;34.92;96863.38;4994069;28;20144;-61
2022/01/02 08:10:53;;;;;;;19.15;3.13;;;;;;;26.14;34.91;96860.91;4997060;28;23668;-61
2022/01/02 08:13:19;;;;;;;4.32;2.50;;;;;;;26.18;34.81;96865.06;5000369;28;20041;-61
2022/01/02 08:15:44;;;;;;;8.55;2.50;;;;;;;26.14;35.04;96853.03;5004100;28;20029;-61
2022/01/02 08:18:13;;;;;;;7.63;2.60;;;;;;;26.14;34.73;96856.53;5000191;28;22069;-61
2022/01/02 08:20:40;;;;;;;7.28;2.47;;;;;;;26.19;34.76;96856.25;4996245;28;20025;-59
2022/01/02 08:23:05;;;;;;;5.97;2.70;;;;;;;26.19;34.77;96866.75;4995997;28;20025;-59
2022/01/02 08:25:31;;;;;;;4.53;2.63;;;;;;;26.19;34.80;96864.13;5003716;28;20084;-61
2022/01/02 08:27:56;;;;;;;4.97;2.78;;;;;;;26.20;34.84;96853.56;5002672;28;20551;-63
2022/01/02 08:30:22;;;;;;;3.92;2.38;;;;;;;26.19;34.68;96857.13;4995650;28;20026;-60
2022/01/02 08:32:47;;;;;;;5.63;2.88;;;;;;;26.21;34.78;96851.78;4993171;28;20052;-62
2022/01/02 08:35:12;;;;;;;3.88;2.45;;;;;;;26.20;34.71;96844.84;4998936;28;20084;-60
2022/01/02 08:37:39;;;;;;;5.53;2.80;;;;;;;26.15;34.77;96834.56;4998429;28;20704;-61
2022/01/02 08:40:05;;;;;;;4.93;2.55;;;;;;;26.21;34.51;96849.16;5014165;28;20029;-60
2022/01/02 08:42:30;;;;;;;7.35;2.90;;;;;;;26.20;34.44;96848.31;5010494;28;20029;-62
2022/01/02 08:44:56;;;;;;;6.75;2.70;;;;;;;26.20;34.53;96843.03;4996943;28;20565;-60
2022/01/02 08:47:21;;;;;;;6.22;2.30;;;;;;;26.19;34.86;96840.50;4999648;28;20025;-63
2022/01/02 08:49:47;;;;;;;7.65;2.40;;;;;;;26.20;35.05;96844.84;5001339;28;20033;-60
2022/01/02 08:52:12;;;;;;;5.22;2.22;;;;;;;26.20;34.94;96842.22;4998878;28;20026;-61
2022/01/02 08:54:38;;;;;;;6.38;2.53;;;;;;;26.20;35.02;96842.22;4999819;28;20025;-61
2022/01/02 08:57:04;;;;;;;4.25;2.22;;;;;;;26.21;35.00;96846.53;4999750;28;20739;-61
2022/01/02 08:59:30;;;;;;;8.20;2.50;;;;;;;26.21;35.13;96847.38;4997286;28;20037;-59
2022/01/02 09:01:55;;;;;;;6.15;2.30;;;;;;;26.21;35.06;96849.16;4999136;28;20077;-60
2022/01/02 09:04:21;;;;;;;6.90;2.60;;;;;;;26.22;35.22;96835.09;4998706;28;20021;-62
2022/01/02 09:06:46;;;;;;;10.02;2.25;;;;;;;26.24;35.33;96854.25;5004414;28;20040;-61
2022/01/02 09:09:11;;;;;;;5.05;2.28;;;;;;;26.25;35.31;96850.69;5004621;28;20021;-59
2022/01/02 09:11:37;;;;;;;4.05;2.35;;;;;;;26.26;35.40;96847.16;4996455;28;20036;-60
2022/01/02 09:14:03;;;;;;;5.75;2.30;;;;;;;26.27;35.48;96848.84;4999324;28;20087;-60
2022/01/02 09:16:29;;;;;;;4.53;2.38;;;;;;;26.28;35.77;96850.53;4998032;28;20026;-60
2022/01/02 09:18:55;;;;;;;4.15;2.10;;;;;;;26.28;35.64;96840.03;4995061;28;20083;-60
2022/01/02 09:21:20;;;;;;;10.02;2.58;;;;;;;26.28;35.46;96845.28;4997045;28;20476;-61
2022/01/02 09:23:46;;;;;;;4.43;2.17;;;;;;;26.30;35.51;96861.81;4993407;28;20037;-61
2022/01/02 09:26:11;;;;;;;6.82;2.63;;;;;;;26.32;35.41;96852.06;4997929;28;20025;-61
2022/01/02 09:28:37;;;;;;;8.07;4.00;;;;;;;26.25;30.72;96852.47;5001891;28;20506;-60
2022/01/02 09:31:02;;;;;;;13.68;8.88;;;;;;;26.10;28.33;96863.69;4997951;28;20029;-62
2022/01/02 09:33:27;;;;;;;5.75;3.78;;;;;;;25.95;27.15;96875.03;5000125;28;20029;-60
2022/01/02 09:35:53;;;;;;;3.97;2.85;;;;;;;25.78;27.42;96868.03;4995246;28;20411;-62
2022/01/02 09:38:18;;;;;;;4.45;2.83;;;;;;;25.65;28.16;96862.56;4998101;28;20041;-61
2022/01/02 09:40:44;;;;;;;6.30;3.00;;;;;;;25.60;28.79;96861.94;4996793;28;20029;-61
2022/01/02 09:43:09;;;;;;;4.35;3.08;;;;;;;25.55;29.28;96857.75;5001361;28;20052;-61
2022/01/02 09:45:38;;;;;;;7.00;2.80;;;;;;;25.53;30.12;96862.25;4996659;28;20030;-61
2022/01/02 09:48:07;;;;;;;4.38;2.80;;;;;;;25.53;30.52;96859.63;4998676;28;20037;-62
2022/01/02 09:50:33;;;;;;;3.72;2.63;;;;;;;25.53;30.83;96859.63;4997271;28;20044;-61
2022/01/02 09:52:58;;;;;;;5.57;2.72;;;;;;;25.55;31.00;96857.75;4999640;28;20033;-63
2022/01/02 09:55:24;;;;;;;7.35;2.72;;;;;;;25.57;31.23;96855.94;4998163;28;20033;-63
2022/01/02 09:57:49;;;;;;;8.65;2.75;;;;;;;25.59;31.43;96847.97;5004474;28;20099;-61
2022/01/02 10:00:16;;;;;;;3.60;2.60;;;;;;;25.62;31.47;96841.75;4998282;28;20045;-60
2022/01/02 10:02:56;;;;;;;9.15;2.90;;;;;;;25.65;31.69;96852.06;4999787;28;21706;-61
2022/01/02 10:05:24;;;;;;;4.10;2.22;;;;;;;25.68;31.67;96849.28;5000250;28;20041;-61
2022/01/02 10:07:50;;;;;;;5.80;2.22;;;;;;;25.70;31.92;96848.28;4997863;28;20183;-63
2022/01/02 10:10:15;;;;;;;6.90;2.20;;;;;;;25.71;31.81;96836.00;5002619;28;20496;-62
2022/01/02 10:12:41;;;;;;;8.63;2.97;;;;;;;25.75;31.99;96848.06;4993525;28;20033;-62
2022/01/02 10:15:06;;;;;;;5.07;2.53;;;;;;;25.76;32.01;96855.00;4998909;28;20033;-61
2022/01/02 10:18:00;;;;;;;5.25;2.35;;;;;;;25.79;32.10;96848.72;5001879;28;20030;-62
2022/01/02 10:20:39;;;;;;;5.65;2.60;;;;;;;25.82;32.35;96844.16;4996399;28;20025;-61
2022/01/02 10:23:16;;;;;;;6.55;2.65;;;;;;;25.85;32.15;96821.31;5000574;28;20028;-61
2022/01/02 10:25:55;;;;;;;6.72;2.35;;;;;;;25.86;32.27;96817.75;5005454;28;20061;-61
2022/01/02 10:28:31;;;;;;;10.05;3.05;;;;;;;25.88;32.42;96813.25;4995358;28;20128;-63
2022/01/02 10:31:01;;;;;;;13.50;3.53;;;;;;;25.85;32.51;96795.06;5001524;28;20029;-61
2022/01/02 10:33:28;;;;;;;12.93;3.20;;;;;;;25.89;32.47;96797.44;4999707;28;20030;-62
2022/01/02 10:36:01;;;;;;;11.30;3.50;;;;;;;25.90;32.67;96795.66;5006983;28;20784;-61
2022/01/02 10:38:27;;;;;;;14.00;3.65;;;;;;;25.93;32.54;96806.00;4987750;28;20582;-61
2022/01/02 10:40:53;;;;;;;16.15;3.72;;;;;;;25.93;32.59;96814.72;5004888;28;20037;-62
2022/01/02 10:43:25;;;;;;;11.30;3.45;;;;;;;25.95;32.70;96814.63;5004917;28;20056;-62
2022/01/02 10:45:51;;;;;;;15.60;3.30;;;;;;;25.96;32.67;96803.19;5005886;28;20157;-62
2022/01/02 10:48:28;;;;;;;9.73;3.38;;;;;;;25.97;32.68;96789.13;5005429;28;20066;-60
2022/01/02 10:50:59;;;;;;;8.77;3.63;;;;;;;26.00;32.79;96799.47;5010336;28;20115;-62
2022/01/02 10:53:25;;;;;;;9.35;3.58;;;;;;;26.02;32.81;96821.28;5007159;28;22269;-61
2022/01/02 10:55:50;;;;;;;10.18;3.50;;;;;;;26.03;32.73;96816.84;5005705;28;20068;-60
2022/01/02 10:58:15;;;;;;;13.63;3.63;;;;;;;26.04;32.84;96827.28;5003518;28;20037;-61
2022/01/02 11:00:43;;;;;;;6.95;3.33;;;;;;;26.06;32.95;96814.91;4999138;28;20511;-61
2022/01/02 11:03:08;;;;;;;9.10;3.40;;;;;;;26.08;32.82;96807.78;5005937;28;20545;-61
2022/01/02 11:05:35;;;;;;;8.63;3.72;;;;;;;26.08;32.90;96815.66;5007328;28;20021;-61
2022/01/02 11:08:01;;;;;;;10.45;3.25;;;;;;;26.10;32.94;96807.72;5004924;28;20034;-60
2022/01/02 11:10:31;;;;;;;9.75;3.17;;;;;;;26.12;33.06;96812.88;4986034;28;20779;-62
2022/01/02 11:12:56;;;;;;;6.93;3.47;;;;;;;26.13;33.00;96804.94;5000633;28;20033;-63
2022/01/02 11:15:24;;;;;;;7.90;3.58;;;;;;;26.14;32.95;96811.88;5003311;28;20454;-60
2022/01/02 11:17:50;;;;;;;9.13;3.22;;;;;;;26.16;32.98;96811.78;4996655;28;20032;-60
2022/01/02 11:20:20;;;;;;;10.27;3.13;;;;;;;26.16;33.08;96814.41;5003110;28;20033;-61
2022/01/02 11:23:07;;;;;;;8.10;3.30;;;;;;;26.18;33.12;96820.44;5004657;28;20022;-62
2022/01/02 11:25:53;;;;;;;9.18;3.30;;;;;;;26.20;33.28;96836.97;5005595;28;20987;-60
2022/01/02 11:28:25;;;;;;;7.25;3.20;;;;;;;26.20;33.16;96842.22;5007277;28;20095;-62
2022/01/02 11:30:50;;;;;;;8.75;3.17;;;;;;;26.20;33.13;96827.28;5000933;28;20091;-63
2022/01/02 11:33:19;;;;;;;20.73;2.83;;;;;;;26.22;33.32;96840.34;5002500;28;20029;-61